Weather at Langton Airstrip

Public forecast

Using degrees Fahrenheit for public forecast. Weather courtesy of forecast.io.

Closest aviation weather report (METAR) to Langton Airstrip

Closest report is Glacier Park International Airport, 30.5 nm (56.5 km) S.

2024/07/13 22:55 (retrieved 22 minutes ago)

KGPI 132255Z 15009KT 10SM CLR 33/11 A2996 RMK AO2 SLP126 T03280111

Closest aviation forecast (TAF) to Langton Airstrip

Closest forecast is Glacier Park International Airport, 30.5 nm (56.5 km) S.

2024/07/13 18:22 (retrieved 5 hours ago)

TAF KGPI 131720Z 1318/1418 VRB04KT P6SM SKC FM131900 19009KT P6SM SCT150 FM140300 31005KT P6SM SKC FM141500 04005KT P6SM SKC